createdAt,value
2018-11-10T00:00:18.220Z,998.45
2018-11-10T00:01:16.816Z,998.39
2018-11-10T00:02:15.446Z,998.37
2018-11-10T00:03:14.003Z,998.41
2018-11-10T00:04:12.564Z,998.41
2018-11-10T00:05:11.212Z,998.46
2018-11-10T00:06:09.886Z,998.38
2018-11-10T00:07:08.416Z,998.43
2018-11-10T00:08:07.029Z,998.39
2018-11-10T00:09:05.626Z,998.41
2018-11-10T00:10:04.173Z,998.42
2018-11-10T00:11:02.742Z,998.4
2018-11-10T00:12:01.302Z,998.4
2018-11-10T00:12:59.868Z,998.38
2018-11-10T00:13:58.346Z,998.37
2018-11-10T00:14:56.879Z,998.41
2018-11-10T00:15:55.401Z,998.38
2018-11-10T00:16:53.938Z,998.37
2018-11-10T00:17:52.471Z,998.37
2018-11-10T00:18:51.066Z,998.38
2018-11-10T00:19:49.647Z,998.36
2018-11-10T00:20:48.167Z,998.4
2018-11-10T00:21:46.719Z,998.34
2018-11-10T00:22:45.261Z,998.34
2018-11-10T00:23:44.089Z,998.41
2018-11-10T00:24:42.640Z,998.38
2018-11-10T00:25:41.297Z,998.25
2018-11-10T00:26:39.828Z,998.24
2018-11-10T00:27:38.369Z,998.25
2018-11-10T00:28:37.022Z,998.23
2018-11-10T00:30:45.750Z,998.21
2018-11-10T00:31:44.277Z,998.28
2018-11-10T00:32:42.826Z,998.28
2018-11-10T00:33:41.343Z,998.2
2018-11-10T00:34:39.918Z,998.31
2018-11-10T00:35:38.391Z,998.23
2018-11-10T00:36:36.926Z,998.25
2018-11-10T00:37:35.455Z,998.24
2018-11-10T00:38:34.002Z,998.18
2018-11-10T00:39:32.531Z,998.15
2018-11-10T00:40:31.053Z,998.11
2018-11-10T00:41:29.601Z,998.14
2018-11-10T00:42:28.113Z,998.14
2018-11-10T00:43:26.669Z,998.11
2018-11-10T00:44:25.204Z,998.13
2018-11-10T00:45:23.855Z,998.13
2018-11-10T00:46:22.411Z,998.11
2018-11-10T00:47:21.039Z,998.11
2018-11-10T00:48:19.576Z,998.1
2018-11-10T00:49:18.101Z,998.01
2018-11-10T00:50:16.642Z,997.92
2018-11-10T00:51:15.332Z,997.88
2018-11-10T00:52:13.848Z,997.79
2018-11-10T00:53:12.382Z,997.73
2018-11-10T00:54:10.958Z,997.6
2018-11-10T00:55:09.548Z,997.57
2018-11-10T00:56:08.096Z,997.53
2018-11-10T00:57:06.757Z,997.48
2018-11-10T00:58:05.299Z,997.51
2018-11-10T00:59:03.815Z,997.51
2018-11-10T01:00:02.438Z,997.59
2018-11-10T01:01:00.963Z,997.6
2018-11-10T01:01:59.492Z,997.53
2018-11-10T01:02:58.027Z,997.6
2018-11-10T01:03:56.557Z,997.59
2018-11-10T01:04:55.161Z,997.61
2018-11-10T01:05:53.698Z,997.62
2018-11-10T01:06:52.233Z,997.6
2018-11-10T01:07:50.720Z,997.65
2018-11-10T01:08:49.491Z,997.64
2018-11-10T01:09:48.018Z,997.62
2018-11-10T01:10:46.536Z,997.63
2018-11-10T01:11:45.470Z,997.65
2018-11-10T01:12:43.991Z,997.67
2018-11-10T01:13:42.522Z,997.62
2018-11-10T01:14:41.027Z,997.68
2018-11-10T01:15:39.614Z,997.68
2018-11-10T01:16:38.144Z,997.72
2018-11-10T01:17:36.649Z,997.7
2018-11-10T01:18:35.185Z,997.68
2018-11-10T01:19:33.767Z,997.65
2018-11-10T01:20:32.221Z,997.7
2018-11-10T01:21:30.767Z,997.65
2018-11-10T01:22:29.314Z,997.62
2018-11-10T01:23:27.844Z,997.64
2018-11-10T01:24:26.392Z,997.66
2018-11-10T01:25:24.907Z,997.64
2018-11-10T01:26:23.426Z,997.65
2018-11-10T01:27:21.959Z,997.62
2018-11-10T01:28:20.496Z,997.59
2018-11-10T01:29:19.023Z,997.54
2018-11-10T01:30:17.741Z,997.53
2018-11-10T01:31:16.292Z,997.48
2018-11-10T01:32:14.852Z,997.47
2018-11-10T01:33:13.395Z,997.46
2018-11-10T01:34:11.926Z,997.45
2018-11-10T01:35:10.436Z,997.45
2018-11-10T01:36:09.056Z,997.43
2018-11-10T01:37:07.723Z,997.43
2018-11-10T01:38:06.270Z,997.41
2018-11-10T01:39:04.809Z,997.39
2018-11-10T01:40:03.362Z,997.33
2018-11-10T01:41:01.885Z,997.3
2018-11-10T01:43:09.713Z,997.25
2018-11-10T01:44:08.253Z,997.23
2018-11-10T01:45:06.807Z,997.24
2018-11-10T01:46:05.375Z,997.22
2018-11-10T01:47:03.901Z,997.26
2018-11-10T01:48:02.436Z,997.28
2018-11-10T01:49:00.961Z,997.27
2018-11-10T01:49:59.489Z,997.24
2018-11-10T01:50:58.004Z,997.21
2018-11-10T01:51:56.585Z,997.26
2018-11-10T01:52:55.109Z,997.23
2018-11-10T01:53:53.644Z,997.19
2018-11-10T01:54:52.169Z,997.2
2018-11-10T01:55:50.717Z,997.19
2018-11-10T01:56:49.229Z,997.18
2018-11-10T01:57:47.858Z,997.23
2018-11-10T01:58:46.411Z,997.25
2018-11-10T01:59:45.079Z,997.28
2018-11-10T02:00:43.727Z,997.34
2018-11-10T02:01:42.253Z,997.4
2018-11-10T02:02:40.856Z,997.41
2018-11-10T02:03:39.472Z,997.44
2018-11-10T02:04:38.030Z,997.46
2018-11-10T02:05:36.582Z,997.5
2018-11-10T02:06:35.183Z,997.49
2018-11-10T02:07:33.641Z,997.43
2018-11-10T02:08:32.159Z,997.5
2018-11-10T02:09:30.685Z,997.4
2018-11-10T02:10:29.317Z,997.41
2018-11-10T02:11:27.873Z,997.38
2018-11-10T02:12:26.388Z,997.37
2018-11-10T02:13:24.914Z,997.36
2018-11-10T02:14:23.477Z,997.33
2018-11-10T02:15:22.006Z,997.33
2018-11-10T02:16:20.535Z,997.3
2018-11-10T02:17:19.072Z,997.34
2018-11-10T02:18:17.597Z,997.29
2018-11-10T02:19:16.149Z,997.34
2018-11-10T02:20:14.675Z,997.33
2018-11-10T02:21:13.240Z,997.36
2018-11-10T02:22:11.912Z,997.36
2018-11-10T02:23:10.411Z,997.4
2018-11-10T02:24:08.956Z,997.41
2018-11-10T02:25:07.591Z,997.39
2018-11-10T02:26:06.119Z,997.39
2018-11-10T02:27:04.653Z,997.3
2018-11-10T02:28:03.474Z,997.28
2018-11-10T02:29:01.982Z,997.23
2018-11-10T02:30:00.505Z,997.24
2018-11-10T02:30:59.157Z,997.19
2018-11-10T02:31:57.691Z,997.19
2018-11-10T02:32:56.234Z,997.22
2018-11-10T02:33:54.724Z,997.2
2018-11-10T02:34:53.239Z,997.16
2018-11-10T02:35:51.883Z,997.18
2018-11-10T02:36:50.411Z,997.15
2018-11-10T02:37:48.946Z,997.09
2018-11-10T02:38:47.457Z,997.12
2018-11-10T02:39:45.975Z,997.07
2018-11-10T02:40:44.489Z,997.12
2018-11-10T02:41:43.017Z,997.09
2018-11-10T02:42:41.533Z,997.14
2018-11-10T02:43:40.061Z,997.13
2018-11-10T02:44:38.578Z,997.09
2018-11-10T02:45:37.310Z,997.14
2018-11-10T02:46:35.886Z,997.1
2018-11-10T02:47:34.401Z,997.1
2018-11-10T02:48:32.930Z,997.13
2018-11-10T02:49:31.587Z,997.15
2018-11-10T02:50:30.117Z,997.16
2018-11-10T02:51:28.648Z,997.15
2018-11-10T02:52:27.265Z,997.15
2018-11-10T02:53:25.837Z,997.11
2018-11-10T02:54:24.362Z,997.11
2018-11-10T02:55:23.039Z,997.12
2018-11-10T02:56:21.620Z,997.07
2018-11-10T02:57:20.120Z,997.12
2018-11-10T02:58:18.675Z,997.14
2018-11-10T02:59:17.193Z,997.14
2018-11-10T03:00:15.721Z,997.17
2018-11-10T03:01:14.253Z,997.23
2018-11-10T03:02:12.772Z,997.25
2018-11-10T03:03:11.294Z,997.2
2018-11-10T03:04:09.826Z,997.16
2018-11-10T03:05:08.374Z,997.17
2018-11-10T03:06:06.898Z,997.15
2018-11-10T03:07:05.414Z,997.07
2018-11-10T03:08:03.942Z,997.04
2018-11-10T03:09:02.483Z,996.94
2018-11-10T03:10:01.009Z,996.91
2018-11-10T03:10:59.550Z,996.8
2018-11-10T03:11:58.068Z,996.73
2018-11-10T03:12:56.587Z,996.67
2018-11-10T03:13:55.138Z,996.66
2018-11-10T03:14:53.824Z,996.63
2018-11-10T03:15:52.346Z,996.52
2018-11-10T03:16:51.004Z,996.52
2018-11-10T03:17:49.795Z,996.51
2018-11-10T03:18:48.319Z,996.49
2018-11-10T03:19:46.934Z,996.5
2018-11-10T03:20:45.563Z,996.49
2018-11-10T03:21:44.084Z,996.58
2018-11-10T03:22:42.607Z,996.6
2018-11-10T03:23:41.152Z,996.64
2018-11-10T03:24:39.744Z,996.68
2018-11-10T03:25:38.286Z,996.73
2018-11-10T03:26:36.800Z,996.8
2018-11-10T03:27:35.443Z,996.83
2018-11-10T03:28:33.962Z,996.83
2018-11-10T03:29:32.488Z,996.77
2018-11-10T03:30:31.129Z,996.74
2018-11-10T03:31:29.705Z,996.7
2018-11-10T03:32:28.237Z,996.77
2018-11-10T03:33:26.748Z,996.77
2018-11-10T03:34:25.382Z,996.78
2018-11-10T03:35:23.944Z,996.77
2018-11-10T03:36:22.468Z,996.83
2018-11-10T03:37:21.240Z,996.84
2018-11-10T03:38:19.761Z,996.77
2018-11-10T03:39:18.289Z,996.76
2018-11-10T03:40:16.873Z,996.77
2018-11-10T03:41:15.399Z,996.83
2018-11-10T03:42:13.940Z,996.84
2018-11-10T03:43:12.452Z,996.84
2018-11-10T03:44:10.986Z,996.82
2018-11-10T03:45:09.515Z,996.82
2018-11-10T03:46:08.037Z,996.8
2018-11-10T03:47:06.576Z,996.79
2018-11-10T03:48:05.122Z,996.81
2018-11-10T03:49:03.652Z,996.78
2018-11-10T03:50:02.180Z,996.76
2018-11-10T03:51:00.708Z,996.73
2018-11-10T03:51:59.231Z,996.72
2018-11-10T03:52:57.742Z,996.71
2018-11-10T03:53:56.265Z,996.67
2018-11-10T03:54:54.802Z,996.62
2018-11-10T03:55:53.373Z,996.56
2018-11-10T03:56:51.897Z,996.56
2018-11-10T03:57:50.430Z,996.5
2018-11-10T03:58:49.163Z,996.43
2018-11-10T03:59:47.733Z,996.41
2018-11-10T04:00:46.258Z,996.36
2018-11-10T04:01:44.778Z,996.39
2018-11-10T04:02:43.315Z,996.38
2018-11-10T04:03:41.934Z,996.42
2018-11-10T04:04:40.452Z,996.38
2018-11-10T04:05:38.996Z,996.44
2018-11-10T04:06:37.617Z,996.46
2018-11-10T04:07:36.158Z,996.42
2018-11-10T04:08:34.680Z,996.44
2018-11-10T04:09:33.257Z,996.48
2018-11-10T04:10:31.794Z,996.55
2018-11-10T04:11:30.328Z,996.51
2018-11-10T04:12:28.870Z,996.44
2018-11-10T04:13:27.452Z,996.45
2018-11-10T04:14:26.006Z,996.49
2018-11-10T04:15:24.528Z,996.46
2018-11-10T04:17:58.435Z,996.47
2018-11-10T04:18:57.016Z,996.5
2018-11-10T04:19:55.615Z,996.44
2018-11-10T04:20:54.146Z,996.4
2018-11-10T04:21:52.711Z,996.3
2018-11-10T04:22:51.237Z,996.33
2018-11-10T04:23:49.749Z,996.32
2018-11-10T04:24:48.273Z,996.28
2018-11-10T04:25:46.803Z,996.26
2018-11-10T04:28:27.200Z,996.35
2018-11-10T04:29:25.805Z,996.35
2018-11-10T04:30:24.331Z,996.31
2018-11-10T04:31:22.855Z,996.3
2018-11-10T04:32:21.608Z,996.37
2018-11-10T04:33:20.132Z,996.37
2018-11-10T04:34:18.676Z,996.35
2018-11-10T04:35:17.283Z,996.27
2018-11-10T04:36:15.825Z,996.27
2018-11-10T04:37:14.341Z,996.22
2018-11-10T04:38:12.868Z,996.25
2018-11-10T04:39:11.389Z,996.32
2018-11-10T04:40:09.903Z,996.34
2018-11-10T04:41:08.421Z,996.37
2018-11-10T04:42:06.957Z,996.38
2018-11-10T04:43:05.496Z,996.37
2018-11-10T04:44:04.025Z,996.42
2018-11-10T04:45:02.549Z,996.44
2018-11-10T04:46:01.090Z,996.53
2018-11-10T04:46:59.619Z,996.46
2018-11-10T04:47:58.141Z,996.46
2018-11-10T04:48:56.677Z,996.4
2018-11-10T04:49:55.313Z,996.39
2018-11-10T04:50:53.784Z,996.36
2018-11-10T04:51:52.310Z,996.35
2018-11-10T04:52:50.846Z,996.33
2018-11-10T04:53:49.671Z,996.39
2018-11-10T04:54:48.202Z,996.38
2018-11-10T04:55:46.721Z,996.34
2018-11-10T04:56:45.424Z,996.32
2018-11-10T04:57:43.977Z,996.34
2018-11-10T04:58:42.486Z,996.29
2018-11-10T04:59:41.137Z,996.3
2018-11-10T05:00:39.685Z,996.27
2018-11-10T05:01:38.397Z,996.29
2018-11-10T05:02:36.793Z,996.3
2018-11-10T05:03:35.377Z,996.28
2018-11-10T05:04:33.895Z,996.35
2018-11-10T05:05:32.454Z,996.33
2018-11-10T05:06:30.985Z,996.31
2018-11-10T05:07:29.517Z,996.36
2018-11-10T05:08:28.046Z,996.38
2018-11-10T05:09:26.572Z,996.43
2018-11-10T05:10:25.109Z,996.36
2018-11-10T05:11:23.653Z,996.23
2018-11-10T05:12:22.161Z,996.23
2018-11-10T05:13:20.678Z,996.27
2018-11-10T05:14:19.381Z,996.34
2018-11-10T05:15:17.925Z,996.33
2018-11-10T05:16:16.457Z,996.22
2018-11-10T05:17:14.977Z,996.16
2018-11-10T05:18:13.544Z,996.2
2018-11-10T05:19:12.077Z,996.25
2018-11-10T05:20:10.625Z,996.26
2018-11-10T05:21:09.498Z,996.22
2018-11-10T05:22:08.040Z,996.24
2018-11-10T05:23:06.563Z,996.24
2018-11-10T05:24:05.114Z,996.22
2018-11-10T05:25:03.677Z,996.24
2018-11-10T05:26:02.208Z,996.24
2018-11-10T05:27:00.726Z,996.26
2018-11-10T05:27:59.271Z,996.3
2018-11-10T05:28:57.795Z,996.32
2018-11-10T05:29:56.353Z,996.3
2018-11-10T05:30:54.880Z,996.29
2018-11-10T05:31:53.404Z,996.36
2018-11-10T05:32:51.925Z,996.31
2018-11-10T05:33:50.512Z,996.29
2018-11-10T05:34:49.050Z,996.25
2018-11-10T05:35:47.613Z,996.3
2018-11-10T05:36:46.154Z,996.35
2018-11-10T05:37:44.683Z,996.35
2018-11-10T05:38:50.468Z,996.45
2018-11-10T05:39:49.244Z,996.36
2018-11-10T05:40:47.782Z,996.36
2018-11-10T05:41:46.328Z,996.35
2018-11-10T05:42:44.883Z,996.37
2018-11-10T05:43:43.412Z,996.34
2018-11-10T05:44:41.940Z,996.36
2018-11-10T05:45:40.530Z,996.38
2018-11-10T05:46:39.043Z,996.37
2018-11-10T05:47:37.568Z,996.35
2018-11-10T05:48:36.104Z,996.35
2018-11-10T05:49:34.659Z,996.39
2018-11-10T05:50:33.278Z,996.38
2018-11-10T05:51:31.879Z,996.35
2018-11-10T05:52:30.403Z,996.32
2018-11-10T05:55:10.537Z,996.37
2018-11-10T05:56:09.066Z,996.3
2018-11-10T05:57:07.892Z,996.3
2018-11-10T05:58:06.365Z,996.28
2018-11-10T05:59:05.000Z,996.32
2018-11-10T06:00:03.574Z,996.32
2018-11-10T06:01:02.098Z,996.35
2018-11-10T06:02:00.607Z,996.27
2018-11-10T06:02:59.172Z,996.35
2018-11-10T06:03:57.647Z,996.35
2018-11-10T06:04:56.174Z,996.36
2018-11-10T06:05:54.722Z,996.37
2018-11-10T06:06:53.244Z,996.33
2018-11-10T06:07:51.762Z,996.32
2018-11-10T06:08:50.312Z,996.34
2018-11-10T06:09:49.136Z,996.34
2018-11-10T06:10:47.644Z,996.33
2018-11-10T06:11:46.178Z,996.29
2018-11-10T06:12:44.732Z,996.28
2018-11-10T06:13:43.335Z,996.23
2018-11-10T06:14:41.934Z,996.2
2018-11-10T06:15:40.448Z,996.2
2018-11-10T06:16:39.040Z,996.15
2018-11-10T06:17:37.609Z,996.18
2018-11-10T06:18:36.204Z,996.14
2018-11-10T06:19:34.822Z,996.21
2018-11-10T06:20:33.406Z,996.22
2018-11-10T06:21:31.960Z,996.21
2018-11-10T06:22:30.501Z,996.14
2018-11-10T06:23:29.027Z,996.08
2018-11-10T06:27:07.853Z,996.07
2018-11-10T06:28:06.361Z,996.07
2018-11-10T06:29:04.912Z,996.06
2018-11-10T06:30:03.563Z,996.04
2018-11-10T06:31:02.107Z,996.06
2018-11-10T06:32:00.636Z,996.12
2018-11-10T06:32:59.223Z,996.12
2018-11-10T06:33:57.927Z,996.14
2018-11-10T06:34:56.454Z,996.1
2018-11-10T06:35:55.062Z,996.14
2018-11-10T06:36:53.627Z,996.09
2018-11-10T06:37:52.167Z,996.13
2018-11-10T06:38:50.699Z,996.15
2018-11-10T06:39:49.210Z,996.16
2018-11-10T06:40:47.734Z,996.12
2018-11-10T06:41:46.257Z,996.11
2018-11-10T06:42:44.820Z,996.18
2018-11-10T06:43:43.369Z,996.18
2018-11-10T06:47:48.178Z,996.23
2018-11-10T06:48:46.687Z,996.29
2018-11-10T06:49:45.438Z,996.37
2018-11-10T06:50:43.960Z,996.37
2018-11-10T06:51:42.486Z,996.32
2018-11-10T06:52:41.101Z,996.28
2018-11-10T06:55:21.536Z,996.21
2018-11-10T06:56:20.096Z,996.2
2018-11-10T06:57:18.730Z,996.16
2018-11-10T06:58:17.294Z,996.2
2018-11-10T06:59:15.999Z,996.24
2018-11-10T07:00:14.476Z,996.2
2018-11-10T07:01:13.139Z,996.2
2018-11-10T07:02:11.929Z,996.24
2018-11-10T07:03:10.593Z,996.26
2018-11-10T07:04:09.141Z,996.28
2018-11-10T07:05:07.653Z,996.32
2018-11-10T07:06:06.167Z,996.31
2018-11-10T07:07:04.814Z,996.3
2018-11-10T07:08:03.345Z,996.3
2018-11-10T07:09:01.955Z,996.27
2018-11-10T07:10:00.533Z,996.32
2018-11-10T07:10:59.208Z,996.35
2018-11-10T07:11:57.847Z,996.36
2018-11-10T07:12:56.440Z,996.36
2018-11-10T07:13:55.247Z,996.39
2018-11-10T07:14:53.743Z,996.38
2018-11-10T07:15:52.271Z,996.4
2018-11-10T07:16:50.827Z,996.42
2018-11-10T07:17:49.387Z,996.41
2018-11-10T07:18:47.918Z,996.43
2018-11-10T07:19:46.444Z,996.51
2018-11-10T07:20:44.993Z,996.5
2018-11-10T07:21:43.499Z,996.54
2018-11-10T07:22:42.022Z,996.48
2018-11-10T07:23:40.548Z,996.49
2018-11-10T07:24:39.131Z,996.47
2018-11-10T07:25:37.652Z,996.49
2018-11-10T07:26:36.204Z,996.57
2018-11-10T07:27:34.742Z,996.56
2018-11-10T07:28:33.304Z,996.67
2018-11-10T07:29:31.990Z,996.6
2018-11-10T07:30:30.522Z,996.59
2018-11-10T07:31:29.158Z,996.59
2018-11-10T07:32:27.804Z,996.6
2018-11-10T07:33:26.333Z,996.6
2018-11-10T07:34:24.880Z,996.57
2018-11-10T07:35:23.497Z,996.63
2018-11-10T07:36:22.062Z,996.63
2018-11-10T07:37:20.672Z,996.59
2018-11-10T07:38:19.231Z,996.61
2018-11-10T07:39:17.761Z,996.62
2018-11-10T07:40:16.303Z,996.62
2018-11-10T07:42:56.779Z,996.57
2018-11-10T07:43:55.302Z,996.57
2018-11-10T07:44:53.922Z,996.59
2018-11-10T07:45:52.454Z,996.57
2018-11-10T07:46:51.248Z,996.53
2018-11-10T07:47:49.826Z,996.55
2018-11-10T07:48:48.355Z,996.48
2018-11-10T07:49:46.869Z,996.5
2018-11-10T07:50:45.393Z,996.44
2018-11-10T07:51:43.925Z,996.44
2018-11-10T07:52:42.468Z,996.41
2018-11-10T07:53:40.970Z,996.42
2018-11-10T07:54:39.482Z,996.4
2018-11-10T07:55:38.028Z,996.42
2018-11-10T07:56:36.566Z,996.41
2018-11-10T07:57:35.120Z,996.35
2018-11-10T07:58:33.648Z,996.36
2018-11-10T07:59:32.213Z,996.39
2018-11-10T08:00:30.734Z,996.36
2018-11-10T08:01:29.313Z,996.41
2018-11-10T08:02:27.893Z,996.4
2018-11-10T08:03:26.436Z,996.4
2018-11-10T08:04:25.115Z,996.42
2018-11-10T08:05:23.706Z,996.39
2018-11-10T08:06:22.221Z,996.38
2018-11-10T08:07:20.751Z,996.4
2018-11-10T08:08:19.441Z,996.37
2018-11-10T08:09:17.998Z,996.38
2018-11-10T08:10:16.582Z,996.46
2018-11-10T08:11:15.205Z,996.44
2018-11-10T08:12:13.770Z,996.43
2018-11-10T08:13:12.298Z,996.46
2018-11-10T08:14:10.852Z,996.46
2018-11-10T08:15:09.409Z,996.47
2018-11-10T08:16:07.971Z,996.48
2018-11-10T08:18:47.986Z,996.5
2018-11-10T08:19:46.490Z,996.54
2018-11-10T08:20:45.121Z,996.53
2018-11-10T08:21:43.696Z,996.55
2018-11-10T08:22:42.252Z,996.58
2018-11-10T08:23:40.820Z,996.6
2018-11-10T08:24:39.436Z,996.62
2018-11-10T08:25:38.086Z,996.58
2018-11-10T08:26:36.610Z,996.52
2018-11-10T08:27:35.354Z,996.48
2018-11-10T08:28:33.918Z,996.48
2018-11-10T08:29:32.441Z,996.51
2018-11-10T08:30:31.007Z,996.54
2018-11-10T08:31:29.546Z,996.52
2018-11-10T08:32:28.094Z,996.5
2018-11-10T08:33:26.593Z,996.46
2018-11-10T08:34:25.144Z,996.44
2018-11-10T08:35:23.678Z,996.41
2018-11-10T08:36:22.203Z,996.41
2018-11-10T08:37:20.758Z,996.37
2018-11-10T08:38:19.379Z,996.38
2018-11-10T08:39:18.121Z,996.37
2018-11-10T08:40:16.559Z,996.42
2018-11-10T08:41:15.132Z,996.42
2018-11-10T08:42:13.929Z,996.41
2018-11-10T08:44:54.083Z,996.43
2018-11-10T08:45:52.578Z,996.41
2018-11-10T08:46:51.143Z,996.38
2018-11-10T08:47:49.702Z,996.41
2018-11-10T08:48:48.245Z,996.38
2018-11-10T08:49:46.796Z,996.45
2018-11-10T08:50:45.317Z,996.36
2018-11-10T08:51:43.838Z,996.4
2018-11-10T08:52:42.374Z,996.37
2018-11-10T08:53:40.914Z,996.37
2018-11-10T08:54:39.430Z,996.35
2018-11-10T08:55:37.961Z,996.33
2018-11-10T08:56:36.566Z,996.31
2018-11-10T08:57:35.213Z,996.37
2018-11-10T08:58:33.869Z,996.37
2018-11-10T08:59:32.441Z,996.34
2018-11-10T09:00:31.053Z,996.36
2018-11-10T09:01:29.784Z,996.44
2018-11-10T09:04:09.812Z,996.35
2018-11-10T09:05:08.355Z,996.43
2018-11-10T09:06:06.892Z,996.39
2018-11-10T09:07:05.438Z,996.42
2018-11-10T09:08:03.980Z,996.37
2018-11-10T09:09:02.531Z,996.37
2018-11-10T09:10:01.477Z,996.45
2018-11-10T09:10:59.919Z,996.47
2018-11-10T09:11:58.462Z,996.45
2018-11-10T09:12:56.982Z,996.38
2018-11-10T09:13:55.842Z,996.35
2018-11-10T09:14:54.391Z,996.36
2018-11-10T09:15:52.983Z,996.36
2018-11-10T09:16:51.567Z,996.32
2018-11-10T09:17:50.208Z,996.25
2018-11-10T09:18:48.660Z,996.3
2018-11-10T09:19:47.159Z,996.33
2018-11-10T09:20:45.683Z,996.33
2018-11-10T09:21:44.288Z,996.29
2018-11-10T09:22:42.720Z,996.3
2018-11-10T09:23:41.240Z,996.37
2018-11-10T09:24:39.790Z,996.41
2018-11-10T09:25:38.343Z,996.46
2018-11-10T09:26:36.890Z,996.4
2018-11-10T09:27:35.426Z,996.39
2018-11-10T09:28:33.956Z,996.4
2018-11-10T09:29:32.487Z,996.4
2018-11-10T09:30:31.014Z,996.43
2018-11-10T09:31:29.745Z,996.44
2018-11-10T09:32:28.278Z,996.5
2018-11-10T09:33:26.799Z,996.4
2018-11-10T09:34:25.332Z,996.42
2018-11-10T09:37:05.725Z,996.44
2018-11-10T09:38:04.262Z,996.45
2018-11-10T09:39:02.778Z,996.44
2018-11-10T09:40:01.585Z,996.45
2018-11-10T09:41:00.127Z,996.5
2018-11-10T09:41:58.719Z,996.5
2018-11-10T09:42:57.204Z,996.53
2018-11-10T09:43:55.957Z,996.51
2018-11-10T09:44:54.497Z,996.51
2018-11-10T09:45:53.021Z,996.53
2018-11-10T09:46:51.719Z,996.51
2018-11-10T09:47:50.308Z,996.51
2018-11-10T09:48:48.957Z,996.54
2018-11-10T09:49:47.538Z,996.54
2018-11-10T09:50:46.081Z,996.53
2018-11-10T09:51:44.626Z,996.52
2018-11-10T09:52:43.165Z,996.51
2018-11-10T09:53:41.783Z,996.5
2018-11-10T09:54:40.323Z,996.46
2018-11-10T09:55:38.876Z,996.45
2018-11-10T09:56:37.728Z,996.44
2018-11-10T09:57:36.254Z,996.43
2018-11-10T09:58:34.772Z,996.39
2018-11-10T09:59:33.349Z,996.41
2018-11-10T10:00:32.048Z,996.34
2018-11-10T10:01:30.709Z,996.41
2018-11-10T10:02:29.584Z,996.4
2018-11-10T10:04:52.026Z,996.34
2018-11-10T10:05:50.561Z,996.33
2018-11-10T10:06:49.161Z,996.28
2018-11-10T10:07:47.717Z,996.33
2018-11-10T10:08:46.267Z,996.36
2018-11-10T10:09:45.178Z,996.32
2018-11-10T10:10:43.713Z,996.32
2018-11-10T10:11:42.328Z,996.31
2018-11-10T10:12:41.391Z,996.25
2018-11-10T10:13:40.106Z,996.29
2018-11-10T10:14:38.706Z,996.32
2018-11-10T10:17:19.018Z,996.34
2018-11-10T10:18:17.710Z,996.35
2018-11-10T10:19:16.258Z,996.38
2018-11-10T10:20:14.805Z,996.45
2018-11-10T10:21:13.513Z,996.35
2018-11-10T10:22:12.089Z,996.29
2018-11-10T10:23:10.700Z,996.32
2018-11-10T10:24:09.252Z,996.33
2018-11-10T10:25:07.905Z,996.34
2018-11-10T10:26:06.419Z,996.35
2018-11-10T10:27:04.997Z,996.34
2018-11-10T10:28:03.524Z,996.28
2018-11-10T10:29:02.133Z,996.33
2018-11-10T10:30:00.589Z,996.31
2018-11-10T10:30:59.126Z,996.28
2018-11-10T10:31:57.853Z,996.28
2018-11-10T10:32:56.403Z,996.25
2018-11-10T10:33:54.982Z,996.29
2018-11-10T10:34:53.669Z,996.24
2018-11-10T10:35:52.234Z,996.27
2018-11-10T10:36:50.773Z,996.18
2018-11-10T10:37:49.732Z,996.23
2018-11-10T10:38:48.759Z,996.22
2018-11-10T10:41:33.059Z,996.19
2018-11-10T10:42:31.631Z,996.26
2018-11-10T10:43:30.398Z,996.26
2018-11-10T10:44:28.969Z,996.2
2018-11-10T10:45:27.767Z,996.18
2018-11-10T10:46:26.394Z,996.21
2018-11-10T10:47:24.944Z,996.26
2018-11-10T10:48:23.557Z,996.18
2018-11-10T10:49:22.024Z,996.21
2018-11-10T10:50:20.554Z,996.18
2018-11-10T10:51:19.189Z,996.23
2018-11-10T10:52:17.747Z,996.22
2018-11-10T10:53:16.280Z,996.13
2018-11-10T10:54:15.075Z,996.1
2018-11-10T10:55:13.723Z,996.04
2018-11-10T10:56:12.384Z,996.06
2018-11-10T10:57:10.932Z,996.02
2018-11-10T10:58:09.456Z,996.04
2018-11-10T10:59:08.055Z,996.03
2018-11-10T11:04:29.042Z,995.92
2018-11-10T11:05:27.705Z,995.9
2018-11-10T11:06:26.185Z,995.91
2018-11-10T11:07:24.718Z,995.91
2018-11-10T11:08:23.292Z,996
2018-11-10T11:09:22.153Z,995.98
2018-11-10T11:10:20.849Z,995.97
2018-11-10T11:11:19.512Z,995.93
2018-11-10T11:12:18.069Z,995.91
2018-11-10T11:13:16.631Z,995.89
2018-11-10T11:14:15.189Z,995.91
2018-11-10T11:15:13.786Z,995.9
2018-11-10T11:16:12.291Z,995.94
2018-11-10T11:17:10.833Z,995.96
2018-11-10T11:18:09.382Z,995.9
2018-11-10T11:19:07.913Z,995.97
2018-11-10T11:20:06.499Z,995.99
2018-11-10T11:21:05.063Z,995.91
2018-11-10T11:22:03.984Z,995.84
2018-11-10T11:23:02.308Z,995.95
2018-11-10T11:24:00.939Z,996
2018-11-10T11:24:59.424Z,995.98
2018-11-10T11:25:57.986Z,995.92
2018-11-10T11:26:56.517Z,995.94
2018-11-10T11:29:37.700Z,995.97
2018-11-10T11:30:36.161Z,995.95
2018-11-10T11:31:34.740Z,995.94
2018-11-10T11:32:33.377Z,995.93
2018-11-10T11:33:31.953Z,995.97
2018-11-10T11:34:30.554Z,995.94
2018-11-10T11:35:29.175Z,995.99
2018-11-10T11:36:27.662Z,996.02
2018-11-10T11:37:26.230Z,996.08
2018-11-10T11:57:50.723Z,995.96
2018-11-10T11:58:49.383Z,995.92
2018-11-10T11:59:47.994Z,995.97
2018-11-10T12:00:46.592Z,995.93
2018-11-10T12:01:45.143Z,996
2018-11-10T12:02:43.730Z,996.02
2018-11-10T12:03:42.298Z,995.98
2018-11-10T12:04:40.941Z,995.99
2018-11-10T12:05:39.645Z,995.94
2018-11-10T12:06:38.560Z,995.88
2018-11-10T12:07:37.035Z,995.87
2018-11-10T12:08:35.881Z,995.89
2018-11-10T12:09:34.636Z,995.92
2018-11-10T12:10:33.765Z,995.92
2018-11-10T12:11:32.345Z,995.93
2018-11-10T12:12:31.256Z,995.91
2018-11-10T12:13:29.986Z,995.93
2018-11-10T12:14:28.559Z,995.93
2018-11-10T12:15:27.357Z,995.98
2018-11-10T12:18:08.289Z,995.94
2018-11-10T12:19:06.719Z,995.89
2018-11-10T12:20:05.257Z,995.87
2018-11-10T12:21:04.338Z,995.88
2018-11-10T12:22:02.780Z,995.91
2018-11-10T12:23:01.447Z,995.87
2018-11-10T12:24:00.414Z,995.84
2018-11-10T12:25:01.161Z,995.87
2018-11-10T12:25:59.565Z,995.82
2018-11-10T12:26:58.517Z,995.88
2018-11-10T12:27:57.209Z,995.85
2018-11-10T12:28:55.762Z,995.82
2018-11-10T12:29:54.677Z,995.79
2018-11-10T12:30:53.398Z,995.84
2018-11-10T12:31:51.952Z,995.86
2018-11-10T12:32:50.390Z,995.89
2018-11-10T12:33:48.946Z,995.88
2018-11-10T12:34:47.706Z,995.85
2018-11-10T12:35:46.703Z,995.82
2018-11-10T12:36:45.487Z,995.82
2018-11-10T12:37:44.220Z,995.74
2018-11-10T12:38:42.862Z,995.73
2018-11-10T12:39:41.388Z,995.72
2018-11-10T12:42:21.649Z,995.64
2018-11-10T12:43:20.100Z,995.62
2018-11-10T12:44:18.608Z,995.62
2018-11-10T12:45:17.221Z,995.58
2018-11-10T12:46:16.574Z,995.57
2018-11-10T12:47:16.773Z,995.56
2018-11-10T12:48:15.387Z,995.55
2018-11-10T12:49:14.787Z,995.57
2018-11-10T12:50:13.434Z,995.6
2018-11-10T12:51:12.104Z,995.61
2018-11-10T12:52:10.700Z,995.61
2018-11-10T12:53:09.249Z,995.57
2018-11-10T12:56:08.649Z,995.6
2018-11-10T12:57:07.346Z,995.57
2018-11-10T12:58:06.195Z,995.61
2018-11-10T12:59:05.159Z,995.63
2018-11-10T13:00:03.934Z,995.69
2018-11-10T13:01:02.844Z,995.67
2018-11-10T13:02:01.438Z,995.67
2018-11-10T13:02:59.982Z,995.67
2018-11-10T13:03:58.548Z,995.71
2018-11-10T13:04:58.065Z,995.71
2018-11-10T13:05:56.921Z,995.74
2018-11-10T13:06:55.601Z,995.7
2018-11-10T13:07:54.271Z,995.7
2018-11-10T13:08:52.783Z,995.71
2018-11-10T13:09:51.508Z,995.66
2018-11-10T13:10:50.244Z,995.67
2018-11-10T13:11:48.702Z,995.68
2018-11-10T13:12:47.339Z,995.66